Waipara, New Zealand
Current Conditions -  °F | °C
As of 5:00 AM on Wednesday 22 Oct 2014 (Local Time) from NZCH Reporting Station
Light Fog Light Fog  
Wind Chill: 37°   Ceiling: 1900
Heat Index: 37°   Visibility: 4mi
Dew Point: 37°   Wind: 0mph
Humidity: 100%   Direction: NA
Pressure: 30.18"   Gusts: NA
Location:  43.06°S, 172.76°E
Report Text: NZCH 211700Z AUTO 00000KT 7000 MIFG BKN019/// 03/03 Q1022 BECMG9999 NSW
Loading
Personal Weather Stations






























Interactive Weather Map
Tropical Storm Tracking
New forecast layout! Learn more

10-Day Weather Forecast

Advertisements
Track Severe Weather on mobile